Port Imperial New Jersey — WBR3133 — position and weather

sailwx.info

Track history (hours):
 
Tides and Currents Weather Stations Pressure Air Temp Water Temp Dewpoint Dewpoint Depression Visibility Wind Speed Wind Dir Waves Ship Positions

Port Imperial New Jersey

Owner: PORT IMPERIAL FERRY CORP, WEEHAWKEN, NJ. More information available from US FCC via Universal Licensing System and Coast Guard Vessel Documentation Center.

Last reported at 2015-Jul-06 12:33 UTC. Time now 2015-Jul-06 13:30 UTC.
Position N 40°46' W 074°01'.

Length 31 m.

Type: Passenger vessel. MMSI: 366990550.

Date/timePositionNaut miles runAvg speedWind from/ knotsBaromVisibWave heightAir tempDewpointWater temp
2015-Jul-06 12:33N 40°46' W 074°01'0 0.4
2015-Jul-06 11:34N 40°45' W 074°01'1 0.1
2015-Jul-06 02:06N 40°46' W 074°01'4 7.7
2015-Jul-06 01:34N 40°42' W 073°60'3 2.6
2015-Jul-06 00:33N 40°44' W 073°58'3 2.6
2015-Jul-05 23:33N 40°42' W 073°60'3 2.6
2015-Jul-05 22:33N 40°44' W 073°58'3 3.4
2015-Jul-05 21:33N 40°42' W 074°00'3 3.4
2015-Jul-05 20:32N 40°45' W 073°58'3 3.0
2015-Jul-05 19:33N 40°42' W 074°00'3 2.5
2015-Jul-05 18:34N 40°44' W 073°58'2 1.7
2015-Jul-05 17:34N 40°42' W 073°59'1 0.7
2015-Jul-05 16:33N 40°43' W 073°58'0 0.5
2015-Jul-05 15:33N 40°43' W 073°58'2 1.7
2015-Jul-05 14:34N 40°42' W 073°60'3 2.5
2015-Jul-05 13:34N 40°44' W 073°58'3 0.3
2015-Jul-05 03:10N 40°46' W 074°01'0 0.4
2015-Jul-05 02:33N 40°47' W 074°01'5 4.7
2015-Jul-05 01:33N 40°42' W 074°01'1 1.0
2015-Jul-05 00:34N 40°42' W 074°02'3 3.4
2015-Jul-04 23:34N 40°45' W 074°01'1 0.9
2015-Jul-04 22:34N 40°46' W 074°00'1 0.6
2015-Jul-04 21:16N 40°46' W 074°01'4 5.8
2015-Jul-04 20:33N 40°42' W 073°60'1 0.9
2015-Jul-04 19:33N 40°42' W 074°01'3 3.1
2015-Jul-04 18:33N 40°44' W 073°58'2 1.9
2015-Jul-04 17:33N 40°42' W 073°59'1 1.1
2015-Jul-04 16:34N 40°43' W 073°58'0 0.3
2015-Jul-04 15:34N 40°43' W 073°58'2 2.1
2015-Jul-04 14:33N 40°42' W 074°00'3 2.6
2015-Jul-04 13:33N 40°44' W 073°58'3 0.2
2015-Jul-04 01:19N 40°46' W 074°01'3 4.5
2015-Jul-04 00:33N 40°43' W 073°58'0 0.2
2015-Jul-03 23:34N 40°43' W 073°58'1 0.8
2015-Jul-03 22:33N 40°44' W 073°58'2 2.2
2015-Jul-03 21:33N 40°42' W 073°60'0 0.0
2015-Jul-03 20:33N 40°42' W 073°60'4 0.1
2015-Jul-02 14:23N 40°46' W 074°01'3 3.1
2015-Jul-02 13:33N 40°44' W 074°01'0 0.2
2015-Jul-02 12:34N 40°44' W 074°01'0 0.1
2015-Jul-02 11:33N 40°43' W 074°01'0 0.1
2015-Jul-02 10:33N 40°44' W 074°01'3 0.1
2015-Jul-01 11:06N 40°46' W 074°01'0 0.0
2015-Jul-01 10:34N 40°46' W 074°01'0 0.0
2015-Jul-01 09:34N 40°46' W 074°01'0 0.0
2015-Jul-01 08:34N 40°46' W 074°01'0 0.0
2015-Jul-01 07:34N 40°46' W 074°01'0 0.0
2015-Jul-01 06:33N 40°46' W 074°01'0 0.0
2015-Jul-01 05:34N 40°46' W 074°01'0 0.0
2015-Jul-01 04:33N 40°46' W 074°01'0 0.0
2015-Jul-01 03:33N 40°46' W 074°01'0 0.0
2015-Jul-01 02:33N 40°46' W 074°01'0 0.0
2015-Jul-01 01:34N 40°46' W 074°01'0 0.0
2015-Jul-01 00:34N 40°46' W 074°01'0 0.0
2015-Jun-30 23:33N 40°46' W 074°01'0 0.0
2015-Jun-30 22:34N 40°46' W 074°01'0 0.0
2015-Jun-30 21:33N 40°46' W 074°01'0 0.0
2015-Jun-30 20:34N 40°46' W 074°01'0 0.0
2015-Jun-30 19:34N 40°46' W 074°01'0 0.0
2015-Jun-30 18:33N 40°46' W 074°01'0 0.0
2015-Jun-30 17:33N 40°46' W 074°01'4 4.1
2015-Jun-30 16:33N 40°42' W 073°60'0 0.3
2015-Jun-30 15:33N 40°42' W 073°59'4 4.0
2015-Jun-30 14:33N 40°46' W 074°01'1 0.0
2015-Jun-29 16:33N 40°46' W 074°00'0 0.1
2015-Jun-29 15:34N 40°46' W 074°00'0 0.0
2015-Jun-29 14:34N 40°46' W 074°00'3 0.3
2015-Jun-29 05:06N 40°43' W 074°01'611.1
2015-Jun-29 04:32N 40°47' W 073°56'0 0.3
2015-Jun-29 03:29N 40°48' W 073°56'0 0.1
2015-Jun-29 02:25N 40°48' W 073°56'0 0.2
2015-Jun-29 01:33N 40°48' W 073°56'1 1.5
2015-Jun-29 00:33N 40°46' W 073°57'1 1.5
2015-Jun-28 23:33N 40°45' W 073°58'1 0.6
2015-Jun-28 22:33N 40°45' W 073°58'2 1.5
2015-Jun-28 21:33N 40°46' W 073°57'0 0.3
2015-Jun-28 20:12N 40°46' W 073°57'2 2.2
2015-Jun-28 19:27N 40°48' W 073°56'1 1.1
2015-Jun-28 18:30N 40°47' W 073°56'3 3.4
2015-Jun-28 17:33N 40°46' W 074°01'1 1.1
2015-Jun-28 16:33N 40°45' W 074°01'1 1.2
2015-Jun-28 15:33N 40°44' W 074°01'1 0.8
2015-Jun-28 14:34N 40°43' W 074°01'3 3.2
2015-Jun-28 13:33N 40°46' W 074°01'0 0.0
2015-Jun-28 12:34N 40°46' W 074°01'0 0.0
2015-Jun-28 11:34N 40°46' W 074°01'0 0.0
2015-Jun-28 10:33N 40°46' W 074°01'0 0.0
2015-Jun-28 09:34N 40°46' W 074°01'0 0.0
2015-Jun-28 08:33N 40°46' W 074°01'4 0.8
2015-Jun-28 03:33N 40°42' W 074°01'4 4.2
2015-Jun-28 02:33N 40°45' W 073°58'1 0.9
2015-Jun-28 01:33N 40°45' W 073°58'1 0.6
2015-Jun-28 00:33N 40°45' W 073°58'3 2.7
2015-Jun-27 23:24N 40°48' W 073°56'4 4.3
2015-Jun-27 22:34N 40°45' W 073°58'2 2.0
2015-Jun-27 21:33N 40°46' W 073°57'1 1.3
2015-Jun-27 20:33N 40°45' W 073°58'1 0.8
2015-Jun-27 19:33N 40°45' W 073°58'1 1.0
2015-Jun-27 18:34N 40°45' W 073°57'1 0.8
2015-Jun-27 17:12N 40°46' W 073°57'5 7.9
2015-Jun-27 16:33N 40°42' W 074°00'5 0.3
2015-Jun-27 00:06N 40°47' W 074°01'1 1.9
2015-Jun-26 23:34N 40°46' W 074°01'0 0.2
2015-Jun-26 22:33N 40°45' W 074°01'0 0.4
2015-Jun-26 21:34N 40°45' W 074°01'0 0.4
2015-Jun-26 20:33N 40°45' W 074°01'0 0.1
2015-Jun-26 19:34N 40°45' W 074°01'0 0.0
2015-Jun-26 18:33N 40°45' W 074°01'  
Track history (hours):
 
Tides and Currents Weather Stations Pressure Air Temp Water Temp Dewpoint Dewpoint Depression Visibility Wind Speed Wind Dir Waves Ship Positions

Port Imperial New Jersey

Owner: PORT IMPERIAL FERRY CORP, WEEHAWKEN, NJ. More information available from US FCC via Universal Licensing System and Coast Guard Vessel Documentation Center.

Last reported at 2015-Jul-06 12:33 UTC. Time now 2015-Jul-06 13:30 UTC.
Position N 40°46' W 074°01'.

Length 31 m.

Type: Passenger vessel. MMSI: 366990550.

Date/timePositionNaut miles runAvg speedWind from/ knotsBaromVisibWave heightAir tempDewpointWater temp
2015-Jul-06 12:33N 40°46' W 074°01'0 0.4
2015-Jul-06 11:34N 40°45' W 074°01'1 0.1
2015-Jul-06 02:06N 40°46' W 074°01'4 7.7
2015-Jul-06 01:34N 40°42' W 073°60'3 2.6
2015-Jul-06 00:33N 40°44' W 073°58'3 2.6
2015-Jul-05 23:33N 40°42' W 073°60'3 2.6
2015-Jul-05 22:33N 40°44' W 073°58'3 3.4
2015-Jul-05 21:33N 40°42' W 074°00'3 3.4
2015-Jul-05 20:32N 40°45' W 073°58'3 3.0
2015-Jul-05 19:33N 40°42' W 074°00'3 2.5
2015-Jul-05 18:34N 40°44' W 073°58'2 1.7
2015-Jul-05 17:34N 40°42' W 073°59'1 0.7
2015-Jul-05 16:33N 40°43' W 073°58'0 0.5
2015-Jul-05 15:33N 40°43' W 073°58'2 1.7
2015-Jul-05 14:34N 40°42' W 073°60'3 2.5
2015-Jul-05 13:34N 40°44' W 073°58'3 0.3
2015-Jul-05 03:10N 40°46' W 074°01'0 0.4
2015-Jul-05 02:33N 40°47' W 074°01'5 4.7
2015-Jul-05 01:33N 40°42' W 074°01'1 1.0
2015-Jul-05 00:34N 40°42' W 074°02'3 3.4
2015-Jul-04 23:34N 40°45' W 074°01'1 0.9
2015-Jul-04 22:34N 40°46' W 074°00'1 0.6
2015-Jul-04 21:16N 40°46' W 074°01'4 5.8
2015-Jul-04 20:33N 40°42' W 073°60'1 0.9
2015-Jul-04 19:33N 40°42' W 074°01'3 3.1
2015-Jul-04 18:33N 40°44' W 073°58'2 1.9
2015-Jul-04 17:33N 40°42' W 073°59'1 1.1
2015-Jul-04 16:34N 40°43' W 073°58'0 0.3
2015-Jul-04 15:34N 40°43' W 073°58'2 2.1
2015-Jul-04 14:33N 40°42' W 074°00'3 2.6
2015-Jul-04 13:33N 40°44' W 073°58'3 0.2
2015-Jul-04 01:19N 40°46' W 074°01'3 4.5
2015-Jul-04 00:33N 40°43' W 073°58'0 0.2
2015-Jul-03 23:34N 40°43' W 073°58'1 0.8
2015-Jul-03 22:33N 40°44' W 073°58'2 2.2
2015-Jul-03 21:33N 40°42' W 073°60'0 0.0
2015-Jul-03 20:33N 40°42' W 073°60'4 0.1
2015-Jul-02 14:23N 40°46' W 074°01'3 3.1
2015-Jul-02 13:33N 40°44' W 074°01'0 0.2
2015-Jul-02 12:34N 40°44' W 074°01'0 0.1
2015-Jul-02 11:33N 40°43' W 074°01'0 0.1
2015-Jul-02 10:33N 40°44' W 074°01'3 0.1
2015-Jul-01 11:06N 40°46' W 074°01'0 0.0
2015-Jul-01 10:34N 40°46' W 074°01'0 0.0
2015-Jul-01 09:34N 40°46' W 074°01'0 0.0
2015-Jul-01 08:34N 40°46' W 074°01'0 0.0
2015-Jul-01 07:34N 40°46' W 074°01'0 0.0
2015-Jul-01 06:33N 40°46' W 074°01'0 0.0
2015-Jul-01 05:34N 40°46' W 074°01'0 0.0
2015-Jul-01 04:33N 40°46' W 074°01'0 0.0
2015-Jul-01 03:33N 40°46' W 074°01'0 0.0
2015-Jul-01 02:33N 40°46' W 074°01'0 0.0
2015-Jul-01 01:34N 40°46' W 074°01'0 0.0
2015-Jul-01 00:34N 40°46' W 074°01'0 0.0
2015-Jun-30 23:33N 40°46' W 074°01'0 0.0
2015-Jun-30 22:34N 40°46' W 074°01'0 0.0
2015-Jun-30 21:33N 40°46' W 074°01'0 0.0
2015-Jun-30 20:34N 40°46' W 074°01'0 0.0
2015-Jun-30 19:34N 40°46' W 074°01'0 0.0
2015-Jun-30 18:33N 40°46' W 074°01'0 0.0
2015-Jun-30 17:33N 40°46' W 074°01'4 4.1
2015-Jun-30 16:33N 40°42' W 073°60'0 0.3
2015-Jun-30 15:33N 40°42' W 073°59'4 4.0
2015-Jun-30 14:33N 40°46' W 074°01'1 0.0
2015-Jun-29 16:33N 40°46' W 074°00'0 0.1
2015-Jun-29 15:34N 40°46' W 074°00'0 0.0
2015-Jun-29 14:34N 40°46' W 074°00'3 0.3
2015-Jun-29 05:06N 40°43' W 074°01'611.1
2015-Jun-29 04:32N 40°47' W 073°56'0 0.3
2015-Jun-29 03:29N 40°48' W 073°56'0 0.1
2015-Jun-29 02:25N 40°48' W 073°56'0 0.2
2015-Jun-29 01:33N 40°48' W 073°56'1 1.5
2015-Jun-29 00:33N 40°46' W 073°57'1 1.5
2015-Jun-28 23:33N 40°45' W 073°58'1 0.6
2015-Jun-28 22:33N 40°45' W 073°58'2 1.5
2015-Jun-28 21:33N 40°46' W 073°57'0 0.3
2015-Jun-28 20:12N 40°46' W 073°57'2 2.2
2015-Jun-28 19:27N 40°48' W 073°56'1 1.1
2015-Jun-28 18:30N 40°47' W 073°56'3 3.4
2015-Jun-28 17:33N 40°46' W 074°01'1 1.1
2015-Jun-28 16:33N 40°45' W 074°01'1 1.2
2015-Jun-28 15:33N 40°44' W 074°01'1 0.8
2015-Jun-28 14:34N 40°43' W 074°01'3 3.2
2015-Jun-28 13:33N 40°46' W 074°01'0 0.0
2015-Jun-28 12:34N 40°46' W 074°01'0 0.0
2015-Jun-28 11:34N 40°46' W 074°01'0 0.0
2015-Jun-28 10:33N 40°46' W 074°01'0 0.0
2015-Jun-28 09:34N 40°46' W 074°01'0 0.0
2015-Jun-28 08:33N 40°46' W 074°01'4 0.8
2015-Jun-28 03:33N 40°42' W 074°01'4 4.2
2015-Jun-28 02:33N 40°45' W 073°58'1 0.9
2015-Jun-28 01:33N 40°45' W 073°58'1 0.6
2015-Jun-28 00:33N 40°45' W 073°58'3 2.7
2015-Jun-27 23:24N 40°48' W 073°56'4 4.3
2015-Jun-27 22:34N 40°45' W 073°58'2 2.0
2015-Jun-27 21:33N 40°46' W 073°57'1 1.3
2015-Jun-27 20:33N 40°45' W 073°58'1 0.8
2015-Jun-27 19:33N 40°45' W 073°58'1 1.0
2015-Jun-27 18:34N 40°45' W 073°57'1 0.8
2015-Jun-27 17:12N 40°46' W 073°57'5 7.9
2015-Jun-27 16:33N 40°42' W 074°00'5 0.3
2015-Jun-27 00:06N 40°47' W 074°01'1 1.9
2015-Jun-26 23:34N 40°46' W 074°01'0 0.2
2015-Jun-26 22:33N 40°45' W 074°01'0 0.4
2015-Jun-26 21:34N 40°45' W 074°01'0 0.4
2015-Jun-26 20:33N 40°45' W 074°01'0 0.1
2015-Jun-26 19:34N 40°45' W 074°01'0 0.0
2015-Jun-26 18:33N 40°45' W 074°01'  

Dump ship's entire track history